createdAt,value
2018-02-27T00:02:14.297Z,2.80
2018-02-27T00:04:42.484Z,2.95
2018-02-27T00:07:10.623Z,3.00
2018-02-27T00:09:38.797Z,2.85
2018-02-27T00:12:07.165Z,2.53
2018-02-27T00:14:35.317Z,3.22
2018-02-27T00:17:04.238Z,2.95
2018-02-27T00:19:32.398Z,3.75
2018-02-27T00:22:00.551Z,3.30
2018-02-27T00:24:29.518Z,3.40
2018-02-27T00:26:57.882Z,3.00
2018-02-27T00:29:26.041Z,2.70
2018-02-27T00:31:54.188Z,3.22
2018-02-27T00:34:22.387Z,3.22
2018-02-27T00:36:50.560Z,3.42
2018-02-27T00:39:18.790Z,3.28
2018-02-27T00:41:47.711Z,3.92
2018-02-27T00:44:15.861Z,3.45
2018-02-27T00:46:44.013Z,3.20
2018-02-27T00:49:13.189Z,3.50
2018-02-27T00:51:41.342Z,3.65
2018-02-27T00:54:09.588Z,3.50
2018-02-27T00:56:37.785Z,3.50
2018-02-27T00:59:06.737Z,3.67
2018-02-27T01:01:34.930Z,3.90
2018-02-27T01:04:03.108Z,3.58
2018-02-27T01:06:31.286Z,4.00
2018-02-27T01:08:59.438Z,3.25
2018-02-27T01:11:27.615Z,3.67
2018-02-27T01:13:55.776Z,6.53
2018-02-27T01:16:24.722Z,3.95
2018-02-27T01:18:52.897Z,5.05
2018-02-27T01:21:21.096Z,4.65
2018-02-27T01:23:49.391Z,4.90
2018-02-27T01:26:17.642Z,4.45
2018-02-27T01:28:46.836Z,4.37
2018-02-27T01:31:15.404Z,4.32
2018-02-27T01:33:43.628Z,4.78
2018-02-27T01:36:12.592Z,4.47
2018-02-27T01:38:41.572Z,3.95
2018-02-27T01:41:09.754Z,5.60
2018-02-27T01:43:38.701Z,4.00
2018-02-27T01:46:06.920Z,4.65
2018-02-27T01:48:35.077Z,4.43
2018-02-27T01:51:15.198Z,4.62
2018-02-27T01:53:43.346Z,5.03
2018-02-27T01:56:11.606Z,4.55
2018-02-27T01:58:39.776Z,5.00
2018-02-27T02:01:07.947Z,4.95
2018-02-27T02:03:36.139Z,5.10
2018-02-27T02:06:04.357Z,4.80
2018-02-27T02:08:32.553Z,5.25
2018-02-27T02:11:01.593Z,4.70
2018-02-27T02:13:29.829Z,3.95
2018-02-27T02:15:58.746Z,4.90
2018-02-27T02:18:27.031Z,3.62
2018-02-27T02:20:55.254Z,4.10
2018-02-27T02:23:23.419Z,3.75
2018-02-27T02:25:52.379Z,3.60
2018-02-27T02:28:20.601Z,4.55
2018-02-27T02:30:48.799Z,4.10
2018-02-27T02:33:16.962Z,4.07
2018-02-27T02:35:45.147Z,4.37
2018-02-27T02:38:13.338Z,4.40
2018-02-27T02:40:41.547Z,4.30
2018-02-27T02:43:09.804Z,4.85
2018-02-27T02:45:38.030Z,3.95
2018-02-27T02:48:06.933Z,4.07
2018-02-27T02:50:35.147Z,4.15
2018-02-27T02:53:03.339Z,3.95
2018-02-27T02:55:31.539Z,4.70
2018-02-27T02:58:00.470Z,4.15
2018-02-27T03:00:28.614Z,4.70
2018-02-27T03:02:56.795Z,3.75
2018-02-27T03:05:25.052Z,3.97
2018-02-27T03:07:54.047Z,3.83
2018-02-27T03:10:22.956Z,4.18
2018-02-27T03:12:51.176Z,3.70
2018-02-27T03:15:19.361Z,3.92
2018-02-27T03:17:47.547Z,3.80
2018-02-27T03:20:16.537Z,3.83
2018-02-27T03:22:45.489Z,3.85
2018-02-27T03:25:13.665Z,4.15
2018-02-27T03:27:41.932Z,4.25
2018-02-27T03:30:11.073Z,4.37
2018-02-27T03:32:40.639Z,4.65
2018-02-27T03:35:08.824Z,3.60
2018-02-27T03:37:37.089Z,3.75
2018-02-27T03:40:05.264Z,3.78
2018-02-27T03:42:33.453Z,3.25
2018-02-27T03:45:01.669Z,4.00
2018-02-27T03:47:29.836Z,4.10
2018-02-27T03:49:58.137Z,4.12
2018-02-27T03:52:26.630Z,4.47
2018-02-27T03:54:54.791Z,4.10
2018-02-27T03:57:22.942Z,4.05
2018-02-27T03:59:51.098Z,3.50
2018-02-27T04:02:20.068Z,3.75
2018-02-27T04:04:48.255Z,4.70
2018-02-27T04:07:17.166Z,4.50
2018-02-27T04:09:45.320Z,4.87
2018-02-27T04:12:14.275Z,3.83
2018-02-27T04:14:42.503Z,4.85
2018-02-27T04:17:10.720Z,4.50
2018-02-27T04:19:38.904Z,4.10
2018-02-27T04:22:07.156Z,4.07
2018-02-27T04:24:35.309Z,4.22
2018-02-27T04:27:03.601Z,3.80
2018-02-27T04:29:31.901Z,4.62
2018-02-27T04:32:00.230Z,3.70
2018-02-27T04:34:28.393Z,3.30
2018-02-27T04:36:57.312Z,5.10
2018-02-27T04:39:25.553Z,3.72
2018-02-27T04:41:54.485Z,3.97
2018-02-27T04:44:22.648Z,4.00
2018-02-27T04:46:50.867Z,4.32
2018-02-27T04:49:19.074Z,4.15
2018-02-27T04:51:47.267Z,3.58
2018-02-27T04:54:15.444Z,4.43
2018-02-27T04:56:43.595Z,3.58
2018-02-27T04:59:11.863Z,3.00
2018-02-27T05:01:40.063Z,3.55
2018-02-27T05:04:08.273Z,3.55
2018-02-27T05:06:36.453Z,3.90
2018-02-27T05:09:04.622Z,3.12
2018-02-27T05:11:32.839Z,3.25
2018-02-27T05:14:01.051Z,2.65
2018-02-27T05:16:29.205Z,3.05
2018-02-27T05:18:57.399Z,2.37
2018-02-27T05:21:25.919Z,3.55
2018-02-27T05:23:54.926Z,3.00
2018-02-27T05:26:23.098Z,4.62
2018-02-27T05:28:52.063Z,2.70
2018-02-27T05:31:20.242Z,2.70
2018-02-27T05:33:48.437Z,2.40
2018-02-27T05:36:16.619Z,2.83
2018-02-27T05:38:44.833Z,2.85
2018-02-27T05:41:12.986Z,3.28
2018-02-27T05:43:41.175Z,3.58
2018-02-27T05:46:09.339Z,4.03
2018-02-27T05:48:38.331Z,2.50
2018-02-27T05:51:06.498Z,3.00
2018-02-27T05:53:34.675Z,2.75
2018-02-27T05:56:02.882Z,2.60
2018-02-27T05:58:31.110Z,2.87
2018-02-27T06:00:59.341Z,2.60
2018-02-27T06:03:27.519Z,2.97
2018-02-27T06:05:56.437Z,2.45
2018-02-27T06:08:24.600Z,2.92
2018-02-27T06:10:53.012Z,2.87
2018-02-27T06:13:21.199Z,2.72
2018-02-27T06:15:49.426Z,3.08
2018-02-27T06:18:17.547Z,2.75
2018-02-27T06:20:45.926Z,2.40
2018-02-27T06:23:14.174Z,3.22
2018-02-27T06:25:42.339Z,2.83
2018-02-27T06:28:10.556Z,3.47
2018-02-27T06:30:38.767Z,3.00
2018-02-27T06:33:07.882Z,2.90
2018-02-27T06:35:36.136Z,3.00
2018-02-27T06:38:04.466Z,2.70
2018-02-27T06:40:32.733Z,2.67
2018-02-27T06:43:01.045Z,2.83
2018-02-27T06:45:29.196Z,2.37
2018-02-27T06:47:57.365Z,2.90
2018-02-27T06:50:26.244Z,2.60
2018-02-27T06:52:54.486Z,2.90
2018-02-27T06:55:22.856Z,2.70
2018-02-27T06:57:51.020Z,2.85
2018-02-27T07:00:19.954Z,2.85
2018-02-27T07:02:48.116Z,2.90
2018-02-27T07:05:16.305Z,4.40
2018-02-27T07:07:44.452Z,2.55
2018-02-27T07:10:12.625Z,2.90
2018-02-27T07:12:40.833Z,2.45
2018-02-27T07:15:09.362Z,3.28
2018-02-27T07:17:37.543Z,2.47
2018-02-27T07:20:05.743Z,2.78
2018-02-27T07:22:33.917Z,2.30
2018-02-27T07:25:02.109Z,2.60
2018-02-27T07:27:32.638Z,3.50
2018-02-27T07:30:00.817Z,2.92
2018-02-27T07:32:29.059Z,3.10
2018-02-27T07:34:57.282Z,3.30
2018-02-27T07:37:25.470Z,3.05
2018-02-27T07:39:54.443Z,2.75
2018-02-27T07:42:22.673Z,3.00
2018-02-27T07:44:50.943Z,3.25
2018-02-27T07:47:19.228Z,4.00
2018-02-27T07:49:47.519Z,4.43
2018-02-27T07:52:15.775Z,3.00
2018-02-27T07:54:43.960Z,2.90
2018-02-27T07:57:12.181Z,3.00
2018-02-27T07:59:41.203Z,3.17
2018-02-27T08:02:09.574Z,3.03
2018-02-27T08:04:37.742Z,3.37
2018-02-27T08:07:05.911Z,2.33
2018-02-27T08:09:34.073Z,2.53
2018-02-27T08:12:02.276Z,3.03
2018-02-27T08:14:30.460Z,2.50
2018-02-27T08:16:59.391Z,2.45
2018-02-27T08:19:27.711Z,2.65
2018-02-27T08:21:55.967Z,3.00
2018-02-27T08:24:24.261Z,2.33
2018-02-27T08:26:52.477Z,3.10
2018-02-27T08:29:20.705Z,2.90
2018-02-27T08:31:48.859Z,2.70
2018-02-27T08:34:17.794Z,3.25
2018-02-27T08:36:46.123Z,3.95
2018-02-27T08:39:15.200Z,2.00
2018-02-27T08:41:43.478Z,2.35
2018-02-27T08:44:11.746Z,2.70
2018-02-27T08:46:39.876Z,2.92
2018-02-27T08:49:08.212Z,3.25
2018-02-27T08:51:37.119Z,35.88
2018-02-27T08:54:05.541Z,15.10
2018-02-27T08:56:34.618Z,5.53
2018-02-27T08:59:03.051Z,4.80
2018-02-27T09:01:32.004Z,3.15
2018-02-27T09:04:00.478Z,16.33
2018-02-27T09:06:28.662Z,2.50
2018-02-27T09:08:57.698Z,2.62
2018-02-27T09:11:26.091Z,2.87
2018-02-27T09:13:54.359Z,3.47
2018-02-27T09:16:23.435Z,2.17
2018-02-27T09:18:52.398Z,2.47
2018-02-27T09:21:20.644Z,2.55
2018-02-27T09:23:48.900Z,4.37
2018-02-27T09:26:17.207Z,2.65
2018-02-27T09:28:45.393Z,2.33
2018-02-27T09:31:13.620Z,3.55
2018-02-27T09:33:41.801Z,3.10
2018-02-27T09:36:09.997Z,2.28
2018-02-27T09:38:38.180Z,2.33
2018-02-27T09:41:06.387Z,2.15
2018-02-27T09:43:34.597Z,5.10
2018-02-27T09:46:02.759Z,2.05
2018-02-27T09:48:31.025Z,4.72
2018-02-27T09:50:59.210Z,2.20
2018-02-27T09:53:27.473Z,2.20
2018-02-27T09:55:55.701Z,2.83
2018-02-27T09:58:23.920Z,4.40
2018-02-27T10:00:52.115Z,3.17
2018-02-27T10:03:20.331Z,2.25
2018-02-27T10:05:49.329Z,2.28
2018-02-27T10:08:17.548Z,1.60
2018-02-27T10:10:45.786Z,1.87
2018-02-27T10:13:14.009Z,2.30
2018-02-27T10:15:42.344Z,2.20
2018-02-27T10:18:10.526Z,1.92
2018-02-27T10:20:39.473Z,6.65
2018-02-27T10:23:08.812Z,1.90
2018-02-27T10:25:37.813Z,2.75
2018-02-27T10:28:06.020Z,5.12
2018-02-27T10:30:35.370Z,2.60
2018-02-27T10:33:04.316Z,1.62
2018-02-27T10:35:32.510Z,1.70
2018-02-27T10:38:00.966Z,1.73
2018-02-27T10:40:29.178Z,1.95
2018-02-27T10:42:57.554Z,2.25
2018-02-27T10:45:25.735Z,5.45
2018-02-27T10:47:54.110Z,2.05
2018-02-27T10:50:22.322Z,2.03
2018-02-27T10:52:50.542Z,1.90
2018-02-27T10:55:18.723Z,2.45
2018-02-27T10:57:46.973Z,2.25
2018-02-27T11:00:21.846Z,1.80
2018-02-27T11:02:50.051Z,1.92
2018-02-27T11:05:18.251Z,2.20
2018-02-27T11:07:46.424Z,1.83
2018-02-27T11:10:14.682Z,2.00
2018-02-27T11:12:42.906Z,1.98
2018-02-27T11:15:11.094Z,1.77
2018-02-27T11:17:40.263Z,1.90
2018-02-27T11:20:08.670Z,3.00
2018-02-27T11:22:36.926Z,2.95
2018-02-27T11:25:05.986Z,2.00
2018-02-27T11:27:34.571Z,1.90
2018-02-27T11:30:02.739Z,1.67
2018-02-27T11:32:30.901Z,1.50
2018-02-27T11:34:59.169Z,1.55
2018-02-27T11:37:27.588Z,1.75
2018-02-27T11:39:56.623Z,2.17
2018-02-27T11:42:25.540Z,1.73
2018-02-27T11:44:54.582Z,2.47
2018-02-27T11:47:22.882Z,2.08
2018-02-27T11:49:51.949Z,1.83
2018-02-27T11:52:20.098Z,2.12
2018-02-27T11:54:48.254Z,1.50
2018-02-27T11:57:16.398Z,1.60
2018-02-27T11:59:45.402Z,1.70
2018-02-27T12:02:13.592Z,1.85
2018-02-27T12:04:41.920Z,2.50
2018-02-27T12:07:10.852Z,1.80
2018-02-27T12:09:39.031Z,2.10
2018-02-27T12:12:07.259Z,2.83
2018-02-27T12:14:35.507Z,1.70
2018-02-27T12:17:03.679Z,1.50
2018-02-27T12:19:32.023Z,1.70
2018-02-27T12:22:00.246Z,1.60
2018-02-27T12:24:28.606Z,1.73
2018-02-27T12:26:56.860Z,1.77
2018-02-27T12:29:25.139Z,1.62
2018-02-27T12:31:53.413Z,1.80
2018-02-27T12:34:21.606Z,1.80
2018-02-27T12:36:49.858Z,2.62
2018-02-27T12:39:18.061Z,1.80
2018-02-27T12:41:46.380Z,2.10
2018-02-27T12:44:14.591Z,1.77
2018-02-27T12:46:43.540Z,2.28
2018-02-27T12:49:12.535Z,1.70
2018-02-27T12:51:40.709Z,1.87
2018-02-27T12:54:08.966Z,1.80
2018-02-27T12:56:37.211Z,1.60
2018-02-27T12:59:05.380Z,1.85
2018-02-27T13:01:33.674Z,2.97
2018-02-27T13:04:01.835Z,2.72
2018-02-27T13:06:30.002Z,1.45
2018-02-27T13:08:58.224Z,2.05
2018-02-27T13:11:26.503Z,2.10
2018-02-27T13:13:55.556Z,2.83
2018-02-27T13:16:25.528Z,2.20
2018-02-27T13:18:53.945Z,2.30
2018-02-27T13:21:22.211Z,2.92
2018-02-27T13:23:50.454Z,1.77
2018-02-27T13:26:18.790Z,1.70
2018-02-27T13:28:46.953Z,1.80
2018-02-27T13:31:15.132Z,7.20
2018-02-27T13:33:43.397Z,1.60
2018-02-27T13:36:11.662Z,1.77
2018-02-27T13:38:39.814Z,1.90
2018-02-27T13:41:08.051Z,1.50
2018-02-27T13:43:37.052Z,1.60
2018-02-27T13:46:05.194Z,1.98
2018-02-27T13:48:33.377Z,1.30
2018-02-27T13:51:02.414Z,1.70
2018-02-27T13:53:31.400Z,1.80
2018-02-27T13:55:59.681Z,1.80
2018-02-27T13:58:27.913Z,2.87
2018-02-27T14:00:57.045Z,1.60
2018-02-27T14:03:25.234Z,3.87
2018-02-27T14:05:53.482Z,2.42
2018-02-27T14:08:21.717Z,3.20
2018-02-27T14:10:49.906Z,2.17
2018-02-27T14:13:18.099Z,2.05
2018-02-27T14:15:46.351Z,2.12
2018-02-27T14:18:14.510Z,2.37
2018-02-27T14:20:42.768Z,2.35
2018-02-27T14:23:10.978Z,2.42
2018-02-27T14:25:39.124Z,2.55
2018-02-27T14:28:07.343Z,2.28
2018-02-27T14:30:35.515Z,3.05
2018-02-27T14:33:03.698Z,2.47
2018-02-27T14:35:31.995Z,2.20
2018-02-27T14:38:01.097Z,2.55
2018-02-27T14:40:29.294Z,2.70
2018-02-27T14:42:57.521Z,2.30
2018-02-27T14:45:26.369Z,2.55
2018-02-27T14:47:55.478Z,2.37
2018-02-27T14:50:24.525Z,5.20
2018-02-27T14:52:53.017Z,2.72
2018-02-27T14:55:21.214Z,3.25
2018-02-27T14:57:50.339Z,2.45
2018-02-27T15:00:18.625Z,2.30
2018-02-27T15:02:46.929Z,2.75
2018-02-27T15:05:15.374Z,2.37
2018-02-27T15:07:43.628Z,3.20
2018-02-27T15:10:12.585Z,2.87
2018-02-27T15:12:40.976Z,2.70
2018-02-27T15:15:09.203Z,2.50
2018-02-27T15:17:38.019Z,3.75
2018-02-27T15:20:06.211Z,2.80
2018-02-27T15:22:35.374Z,4.37
2018-02-27T15:25:03.676Z,3.12
2018-02-27T15:27:31.942Z,2.60
2018-02-27T15:30:00.192Z,3.55
2018-02-27T15:32:28.376Z,4.32
2018-02-27T15:34:56.621Z,4.57
2018-02-27T15:37:24.831Z,3.58
2018-02-27T15:39:53.781Z,3.80
2018-02-27T15:42:22.002Z,3.60
2018-02-27T15:44:50.182Z,3.62
2018-02-27T15:47:18.523Z,3.00
2018-02-27T15:49:46.742Z,3.70
2018-02-27T15:52:15.018Z,3.62
2018-02-27T15:54:43.185Z,3.60
2018-02-27T15:57:11.361Z,4.95
2018-02-27T15:59:39.708Z,5.35
2018-02-27T16:02:07.904Z,6.12
2018-02-27T16:04:36.149Z,10.90
2018-02-27T16:07:05.243Z,6.95
2018-02-27T16:09:33.502Z,11.63
2018-02-27T16:12:01.774Z,4.80
2018-02-27T16:14:30.027Z,15.40
2018-02-27T16:16:58.259Z,7.35
2018-02-27T16:19:26.430Z,5.00
2018-02-27T16:21:55.275Z,9.02
2018-02-27T16:24:23.450Z,8.00
2018-02-27T16:26:51.657Z,3.08
2018-02-27T16:29:19.829Z,4.10
2018-02-27T16:31:49.702Z,3.03
2018-02-27T16:34:18.916Z,5.82
2018-02-27T16:36:47.933Z,2.97
2018-02-27T16:39:16.124Z,2.95
2018-02-27T16:41:44.314Z,3.08
2018-02-27T16:44:12.562Z,4.40
2018-02-27T16:46:41.929Z,4.35
2018-02-27T16:49:10.203Z,4.53
2018-02-27T16:51:39.383Z,4.50
2018-02-27T16:54:07.764Z,5.18
2018-02-27T16:56:35.967Z,5.90
2018-02-27T16:59:04.176Z,5.22
2018-02-27T17:01:33.981Z,9.15
2018-02-27T17:04:02.211Z,5.35
2018-02-27T17:06:30.487Z,6.53
2018-02-27T17:08:58.654Z,6.10
2018-02-27T17:11:27.530Z,6.30
2018-02-27T17:13:56.537Z,7.05
2018-02-27T17:16:24.720Z,6.90
2018-02-27T17:18:53.035Z,6.62
2018-02-27T17:21:21.264Z,8.13
2018-02-27T17:23:49.501Z,7.60
2018-02-27T17:26:17.767Z,7.28
2018-02-27T17:28:45.979Z,7.57
2018-02-27T17:31:14.210Z,8.45
2018-02-27T17:33:42.451Z,8.40
2018-02-27T17:36:10.679Z,7.15
2018-02-27T17:38:39.102Z,7.40
2018-02-27T17:41:07.382Z,8.20
2018-02-27T17:43:35.566Z,8.30
2018-02-27T17:46:03.811Z,8.93
2018-02-27T17:48:32.068Z,8.15
2018-02-27T17:51:01.099Z,9.35
2018-02-27T17:53:29.301Z,7.53
2018-02-27T17:55:58.087Z,9.32
2018-02-27T17:58:26.477Z,8.38
2018-02-27T18:00:54.736Z,8.15
2018-02-27T18:03:23.184Z,8.10
2018-02-27T18:05:51.498Z,8.05
2018-02-27T18:08:19.788Z,8.10
2018-02-27T18:10:48.171Z,8.20
2018-02-27T18:13:16.390Z,7.72
2018-02-27T18:15:44.633Z,8.20
2018-02-27T18:18:12.877Z,10.45
2018-02-27T18:20:41.176Z,8.35
2018-02-27T18:23:09.475Z,8.60
2018-02-27T18:25:37.684Z,8.85
2018-02-27T18:28:05.890Z,8.60
2018-02-27T18:30:34.082Z,9.32
2018-02-27T18:33:02.370Z,8.20
2018-02-27T18:35:30.579Z,8.93
2018-02-27T18:37:59.044Z,9.73
2018-02-27T18:40:27.259Z,9.80
2018-02-27T18:42:55.562Z,8.23
2018-02-27T18:45:25.914Z,8.25
2018-02-27T18:47:54.118Z,9.52
2018-02-27T18:50:22.358Z,9.15
2018-02-27T18:52:50.551Z,9.95
2018-02-27T18:55:18.790Z,8.75
2018-02-27T18:57:46.988Z,9.85
2018-02-27T19:00:15.205Z,9.15
2018-02-27T19:02:43.524Z,8.60
2018-02-27T19:05:11.768Z,9.55
2018-02-27T19:07:39.994Z,9.25
2018-02-27T19:10:08.223Z,9.35
2018-02-27T19:12:37.169Z,8.90
2018-02-27T19:15:05.422Z,9.00
2018-02-27T19:17:33.618Z,9.15
2018-02-27T19:20:01.884Z,10.13
2018-02-27T19:22:30.464Z,10.02
2018-02-27T19:24:58.680Z,9.00
2018-02-27T19:27:27.639Z,8.73
2018-02-27T19:29:55.862Z,8.98
2018-02-27T19:32:24.932Z,9.20
2018-02-27T19:34:53.243Z,9.40
2018-02-27T19:37:21.462Z,10.20
2018-02-27T19:39:50.101Z,10.07
2018-02-27T19:42:18.462Z,10.13
2018-02-27T19:44:47.424Z,9.93
2018-02-27T19:47:15.604Z,10.55
2018-02-27T19:49:43.845Z,9.55
2018-02-27T19:52:12.115Z,8.95
2018-02-27T19:54:40.288Z,10.43
2018-02-27T19:57:08.458Z,9.70
2018-02-27T19:59:36.676Z,10.05
2018-02-27T20:02:05.018Z,9.48
2018-02-27T20:04:33.250Z,10.18
2018-02-27T20:07:02.296Z,11.45
2018-02-27T20:09:30.559Z,10.60
2018-02-27T20:11:58.788Z,10.48
2018-02-27T20:14:31.601Z,10.10
2018-02-27T20:16:59.870Z,11.35
2018-02-27T20:19:28.069Z,11.48
2018-02-27T20:21:56.311Z,10.15
2018-02-27T20:24:24.554Z,10.05
2018-02-27T20:26:52.730Z,10.25
2018-02-27T20:29:20.995Z,11.15
2018-02-27T20:31:49.164Z,9.60
2018-02-27T20:34:17.454Z,9.60
2018-02-27T20:36:46.660Z,10.73
2018-02-27T20:39:20.755Z,9.02
2018-02-27T20:41:48.936Z,9.40
2018-02-27T20:44:17.977Z,9.45
2018-02-27T20:46:46.171Z,9.32
2018-02-27T20:49:14.517Z,9.63
2018-02-27T20:51:42.687Z,9.10
2018-02-27T20:54:10.880Z,9.82
2018-02-27T20:56:39.050Z,9.45
2018-02-27T20:59:07.517Z,10.52
2018-02-27T21:01:35.742Z,9.57
2018-02-27T21:04:04.076Z,8.32
2018-02-27T21:06:32.410Z,9.70
2018-02-27T21:09:01.366Z,8.80
2018-02-27T21:11:29.649Z,9.07
2018-02-27T21:13:57.848Z,9.18
2018-02-27T21:16:27.236Z,8.77
2018-02-27T21:18:55.490Z,8.00
2018-02-27T21:21:23.756Z,8.10
2018-02-27T21:23:51.942Z,8.75
2018-02-27T21:26:20.119Z,8.43
2018-02-27T21:28:48.311Z,8.57
2018-02-27T21:31:16.644Z,8.15
2018-02-27T21:33:44.872Z,7.28
2018-02-27T21:36:13.087Z,7.45
2018-02-27T21:38:41.524Z,8.10
2018-02-27T21:41:09.792Z,7.82
2018-02-27T21:43:38.009Z,7.82
2018-02-27T21:46:06.295Z,8.25
2018-02-27T21:48:34.518Z,6.90
2018-02-27T21:51:02.741Z,7.40
2018-02-27T21:53:31.028Z,6.35
2018-02-27T21:55:59.204Z,7.53
2018-02-27T21:58:27.465Z,6.57
2018-02-27T22:00:56.427Z,6.87
2018-02-27T22:03:24.635Z,6.97
2018-02-27T22:05:52.859Z,6.78
2018-02-27T22:08:22.756Z,6.53
2018-02-27T22:10:50.979Z,8.70
2018-02-27T22:13:19.584Z,6.80
2018-02-27T22:15:47.779Z,6.22
2018-02-27T22:18:16.066Z,7.45
2018-02-27T22:20:44.217Z,6.30
2018-02-27T22:23:12.395Z,5.85
2018-02-27T22:25:40.726Z,5.43
2018-02-27T22:28:09.704Z,5.50
2018-02-27T22:30:37.882Z,6.60
2018-02-27T22:33:06.548Z,6.85
2018-02-27T22:35:35.037Z,6.32
2018-02-27T22:38:03.206Z,5.75
2018-02-27T22:40:32.188Z,5.78
2018-02-27T22:43:00.758Z,6.68
2018-02-27T22:45:28.943Z,5.30
2018-02-27T22:47:57.211Z,5.93
2018-02-27T22:50:25.370Z,5.65
2018-02-27T22:52:53.558Z,5.60
2018-02-27T22:55:21.733Z,5.40
2018-02-27T22:57:49.937Z,6.10
2018-02-27T23:00:35.844Z,5.80
2018-02-27T23:03:04.052Z,5.28
2018-02-27T23:05:32.324Z,4.90
2018-02-27T23:08:00.497Z,5.62
2018-02-27T23:10:28.665Z,6.00
2018-02-27T23:12:57.832Z,5.05
2018-02-27T23:15:26.004Z,5.62
2018-02-27T23:17:54.214Z,5.22
2018-02-27T23:20:22.399Z,6.40
2018-02-27T23:22:50.919Z,5.50
2018-02-27T23:28:27.684Z,5.43
2018-02-27T23:30:57.496Z,6.25
2018-02-27T23:33:27.894Z,5.65
2018-02-27T23:35:56.069Z,5.60
2018-02-27T23:38:24.248Z,4.85
2018-02-27T23:40:52.615Z,5.32
2018-02-27T23:43:20.843Z,5.03
2018-02-27T23:45:49.398Z,5.10
2018-02-27T23:48:17.822Z,5.45
2018-02-27T23:50:46.010Z,5.30
2018-02-27T23:53:15.061Z,5.05
2018-02-27T23:55:43.231Z,5.60
2018-02-27T23:58:12.341Z,6.68
